LGMT/MJT METAR and TAF weather

Enter ICAO airport designator
Station Type Date Time Source
LGMT METAR 2022/12/08 11:50 UTC NOAA

LGMT 081150Z 15008KT 9999 SCT020 16/10 Q1018


Station Type Date Time Source
LGMT Decoded METAR 2022/12/08 11:50 UTC NOAA

Mytilini Airport , Greece (LGMT) 39-04N 026-36E 5M
Dec 08, 2022 - 06:50 AM EST / 2022.12.08 1150 UTC
Wind: from the SSE (150 degrees) at 9 MPH (8 KT):0
Visibility: greater than 7 mile(s):0
Sky conditions: partly cloudy
Temperature: 60 F (16 C)
Dew Point: 50 F (10 C)
Relative Humidity: 67%
Pressure (altimeter): 30.06 in. Hg (1018 hPa)
ob: LGMT 081150Z 15008KT 9999 SCT020 16/10 Q1018
cycle: 12

Station Type Date Time Source
LGMT TAF 2012/09/21 03:06 UTC NOAA

TAF LGMT 210200Z 2103/2115 VRB05KT 9999 SCT020
BECMG 2103/2105 30015KT PROB30
TEMPO 2103/2106 7000 RA SCT018 BKN030
BECMG 2107/2109 29012KT

Example: see airport list